createdAt,value
2019-03-01T00:01:55.611Z,111.77
2019-03-01T00:04:37.213Z,113.23
2019-03-01T00:07:49.624Z,119.43
2019-03-01T00:10:34.419Z,117.63
2019-03-01T00:13:43.324Z,109.53
2019-03-01T00:16:44.073Z,91.27
2019-03-01T00:19:41.060Z,118.10
2019-03-01T00:22:30.510Z,123.43
2019-03-01T00:25:22.815Z,153.30
2019-03-01T00:28:33.432Z,132.17
2019-03-01T00:31:25.996Z,139.83
2019-03-01T00:34:24.048Z,141.60
2019-03-01T00:37:32.551Z,121.13
2019-03-01T00:40:13.473Z,113.63
2019-03-01T00:43:19.451Z,86.30
2019-03-01T00:45:48.472Z,120.57
2019-03-01T00:48:17.191Z,130.90
2019-03-01T00:50:46.003Z,154.87
2019-03-01T00:53:14.820Z,169.23
2019-03-01T00:55:43.532Z,142.97
2019-03-01T00:58:12.257Z,120.87
2019-03-01T01:00:44.234Z,132.07
2019-03-01T01:03:13.051Z,119.20
2019-03-01T01:05:41.879Z,177.10
2019-03-01T01:08:10.659Z,176.93
2019-03-01T01:10:39.585Z,189.57
2019-03-01T01:13:08.412Z,203.93
2019-03-01T01:15:37.164Z,194.57
2019-03-01T01:18:05.967Z,207.47
2019-03-01T01:20:34.770Z,204.13
2019-03-01T01:23:03.533Z,198.43
2019-03-01T01:25:32.434Z,197.27
2019-03-01T01:28:01.543Z,219.50
2019-03-01T01:30:30.625Z,197.73
2019-03-01T01:32:59.682Z,211.13
2019-03-01T01:35:30.955Z,208.60
2019-03-01T01:38:00.044Z,211.23
2019-03-01T01:40:28.769Z,197.73
2019-03-01T01:42:57.735Z,247.33
2019-03-01T01:45:26.863Z,217.83
2019-03-01T01:47:55.579Z,203.80
2019-03-01T01:50:24.653Z,214.77
2019-03-01T01:52:53.921Z,215.90
2019-03-01T01:55:23.004Z,249.67
2019-03-01T01:57:51.755Z,234.63
2019-03-01T02:00:20.924Z,238.13
2019-03-01T02:02:49.895Z,232.20
2019-03-01T02:05:18.736Z,256.13
2019-03-01T02:07:47.544Z,243.57
2019-03-01T02:10:16.364Z,252.87
2019-03-01T02:12:45.151Z,256.87
2019-03-01T02:15:14.318Z,235.70
2019-03-01T02:17:43.112Z,267.40
2019-03-01T02:20:12.192Z,254.00
2019-03-01T02:22:40.925Z,280.20
2019-03-01T02:25:10.308Z,243.93
2019-03-01T02:27:39.207Z,259.37
2019-03-01T02:30:12.249Z,241.23
2019-03-01T02:32:45.615Z,262.43
2019-03-01T02:35:16.471Z,281.77
2019-03-01T02:37:45.285Z,251.00
2019-03-01T02:40:14.500Z,247.80
2019-03-01T02:42:43.414Z,245.80
2019-03-01T02:45:14.288Z,248.60
2019-03-01T02:47:43.567Z,265.87
2019-03-01T02:50:13.497Z,284.83
2019-03-01T02:52:42.298Z,247.80
2019-03-01T02:55:11.870Z,272.40
2019-03-01T02:57:40.734Z,271.53
2019-03-01T03:00:13.467Z,275.83
2019-03-01T03:02:42.260Z,243.73
2019-03-01T03:05:11.262Z,284.40
2019-03-01T03:07:50.866Z,266.03
2019-03-01T03:10:19.716Z,311.80
2019-03-01T03:12:49.226Z,348.67
2019-03-01T03:15:22.190Z,282.23
2019-03-01T03:17:51.091Z,305.00
2019-03-01T03:20:19.987Z,324.03
2019-03-01T03:22:48.792Z,321.03
2019-03-01T03:25:17.833Z,324.07
2019-03-01T03:27:46.659Z,310.50
2019-03-01T03:30:15.726Z,321.33
2019-03-01T03:32:44.610Z,288.20
2019-03-01T03:35:13.494Z,289.47
2019-03-01T03:37:42.325Z,314.47
2019-03-01T03:40:11.704Z,329.10
2019-03-01T03:42:40.526Z,323.63
2019-03-01T03:45:10.266Z,331.10
2019-03-01T03:47:39.121Z,329.20
2019-03-01T03:50:09.602Z,312.60
2019-03-01T03:52:38.438Z,343.90
2019-03-01T03:55:08.075Z,332.53
2019-03-01T03:57:37.338Z,320.17
2019-03-01T04:00:09.405Z,322.57
2019-03-01T04:02:38.604Z,300.67
2019-03-01T04:05:07.810Z,334.33
2019-03-01T04:07:36.994Z,360.07
2019-03-01T04:10:06.025Z,336.00
2019-03-01T04:12:34.922Z,331.80
2019-03-01T04:15:04.344Z,328.13
2019-03-01T04:17:33.280Z,336.50
2019-03-01T04:20:02.220Z,295.87
2019-03-01T04:22:31.063Z,356.37
2019-03-01T04:24:59.980Z,323.93
2019-03-01T04:27:28.860Z,310.37
2019-03-01T04:29:57.951Z,330.57
2019-03-01T04:32:26.839Z,315.30
2019-03-01T04:34:55.615Z,314.27
2019-03-01T04:37:24.480Z,292.23
2019-03-01T04:39:53.258Z,300.90
2019-03-01T04:42:22.378Z,290.57
2019-03-01T04:44:51.170Z,264.23
2019-03-01T04:47:19.914Z,297.10
2019-03-01T04:49:49.006Z,255.60
2019-03-01T04:52:38.042Z,255.90
2019-03-01T04:55:15.251Z,278.53
2019-03-01T04:57:44.009Z,282.87
2019-03-01T05:00:15.389Z,259.77
2019-03-01T05:02:44.249Z,265.93
2019-03-01T05:05:13.839Z,253.23
2019-03-01T05:07:42.972Z,279.80
2019-03-01T05:10:12.220Z,252.27
2019-03-01T05:12:41.045Z,253.93
2019-03-01T05:15:11.980Z,265.67
2019-03-01T05:17:40.789Z,277.97
2019-03-01T05:20:09.902Z,288.57
2019-03-01T05:22:38.707Z,281.60
2019-03-01T05:25:07.677Z,273.10
2019-03-01T05:27:36.421Z,269.33
2019-03-01T05:30:06.139Z,304.60
2019-03-01T05:32:35.000Z,294.10
2019-03-01T05:35:04.119Z,350.67
2019-03-01T05:37:32.885Z,325.63
2019-03-01T05:40:01.680Z,331.83
2019-03-01T05:42:30.745Z,326.37
2019-03-01T05:45:00.548Z,298.83
2019-03-01T05:47:29.456Z,359.90
2019-03-01T05:49:58.496Z,354.53
2019-03-01T05:52:27.796Z,368.87
2019-03-01T05:54:56.628Z,309.70
2019-03-01T05:57:25.411Z,317.03
2019-03-01T05:59:54.503Z,296.90
2019-03-01T06:02:48.939Z,298.30
2019-03-01T06:05:20.864Z,280.73
2019-03-01T06:08:06.912Z,290.37
2019-03-01T06:11:03.733Z,265.30
2019-03-01T06:13:49.152Z,256.90
2019-03-01T06:16:37.424Z,272.80
2019-03-01T06:19:47.393Z,265.40
2019-03-01T06:23:04.626Z,244.17
2019-03-01T06:26:01.514Z,239.47
2019-03-01T06:29:05.501Z,241.50
2019-03-01T06:32:12.258Z,196.80
2019-03-01T06:35:24.566Z,203.70
2019-03-01T06:38:51.080Z,232.40
2019-03-01T06:42:12.391Z,153.97
2019-03-01T06:45:05.061Z,136.70
2019-03-01T06:47:48.625Z,159.07
2019-03-01T06:50:22.778Z,154.80
2019-03-01T06:52:51.926Z,117.90
2019-03-01T06:55:43.808Z,129.93
2019-03-01T06:58:15.728Z,123.67
2019-03-01T07:00:50.123Z,75.10
2019-03-01T07:03:17.776Z,58.07
2019-03-01T07:05:46.636Z,59.17
2019-03-01T07:08:15.950Z,46.70
2019-03-01T07:10:44.890Z,37.97
2019-03-01T07:13:13.764Z,38.27
2019-03-01T07:15:42.591Z,40.00
2019-03-01T07:18:11.354Z,33.63
2019-03-01T07:20:40.288Z,19.90
2019-03-01T07:23:09.182Z,22.77
2019-03-01T07:25:37.979Z,17.27
2019-03-01T07:28:07.803Z,11.30
2019-03-01T07:30:36.772Z,14.40
2019-03-01T07:33:05.571Z,14.67
2019-03-01T07:35:34.553Z,16.97
2019-03-01T07:38:03.277Z,13.37
2019-03-01T07:40:32.092Z,14.80
2019-03-01T07:43:01.003Z,12.10
2019-03-01T07:45:30.441Z,15.50
2019-03-01T07:47:59.527Z,24.63
2019-03-01T07:50:28.265Z,17.20
2019-03-01T07:53:00.194Z,20.47
2019-03-01T07:55:28.365Z,11.80
2019-03-01T07:57:58.303Z,16.30
2019-03-01T08:00:27.075Z,17.00
2019-03-01T08:02:55.883Z,14.73
2019-03-01T08:05:24.631Z,19.47
2019-03-01T08:07:56.357Z,17.67
2019-03-01T08:10:24.087Z,15.53
2019-03-01T08:12:52.937Z,13.67
2019-03-01T08:15:21.783Z,14.90
2019-03-01T08:17:50.971Z,13.33
2019-03-01T08:20:19.781Z,14.00
2019-03-01T08:22:50.817Z,16.77
2019-03-01T08:25:23.403Z,19.60
2019-03-01T08:27:52.139Z,19.33
2019-03-01T08:30:21.033Z,18.30
2019-03-01T08:32:49.885Z,17.47
2019-03-01T08:35:18.752Z,18.70
2019-03-01T08:37:49.835Z,12.67
2019-03-01T08:40:18.253Z,17.00
2019-03-01T08:42:47.264Z,19.27
2019-03-01T08:45:16.723Z,18.70
2019-03-01T08:47:45.548Z,33.50
2019-03-01T08:50:15.502Z,23.87
2019-03-01T08:52:44.468Z,19.80
2019-03-01T08:55:15.157Z,21.87
2019-03-01T08:57:44.758Z,24.87
2019-03-01T09:00:23.203Z,23.80
2019-03-01T09:02:54.278Z,23.17
2019-03-01T09:05:23.194Z,24.67
2019-03-01T09:07:52.089Z,21.77
2019-03-01T09:10:20.917Z,27.67
2019-03-01T09:12:51.049Z,32.60
2019-03-01T09:15:20.467Z,26.83
2019-03-01T09:17:49.453Z,27.17
2019-03-01T09:20:19.141Z,31.63
2019-03-01T09:22:48.092Z,33.57
2019-03-01T09:25:17.028Z,42.40
2019-03-01T09:27:45.988Z,36.30
2019-03-01T09:30:17.420Z,26.97
2019-03-01T09:32:46.247Z,20.90
2019-03-01T09:35:47.512Z,35.97
2019-03-01T09:38:16.367Z,26.70
2019-03-01T09:40:45.364Z,30.10
2019-03-01T09:43:14.167Z,24.13
2019-03-01T09:45:45.757Z,34.20
2019-03-01T09:48:13.496Z,21.63
2019-03-01T09:50:42.289Z,29.97
2019-03-01T09:53:11.552Z,20.70
2019-03-01T09:55:40.404Z,25.40
2019-03-01T09:58:09.221Z,27.80
2019-03-01T10:00:39.495Z,25.23
2019-03-01T10:03:08.471Z,18.83
2019-03-01T10:05:37.668Z,19.93
2019-03-01T10:08:07.737Z,28.67
2019-03-01T10:10:37.303Z,17.53
2019-03-01T10:13:06.150Z,23.10
2019-03-01T10:15:34.976Z,22.23
2019-03-01T10:18:03.766Z,20.20
2019-03-01T10:20:32.621Z,28.70
2019-03-01T10:23:01.416Z,21.10
2019-03-01T10:25:30.329Z,24.90
2019-03-01T10:27:59.452Z,24.33
2019-03-01T10:30:28.444Z,26.63
2019-03-01T10:32:57.439Z,27.70
2019-03-01T10:35:26.536Z,27.33
2019-03-01T10:37:55.728Z,31.33
2019-03-01T10:40:24.519Z,25.37
2019-03-01T10:42:53.370Z,35.67
2019-03-01T10:45:23.149Z,33.17
2019-03-01T10:47:52.232Z,34.57
2019-03-01T10:50:21.480Z,39.83
2019-03-01T10:52:50.410Z,31.83
2019-03-01T10:55:19.596Z,31.93
2019-03-01T10:57:48.871Z,35.93
2019-03-01T11:00:19.682Z,29.83
2019-03-01T11:02:48.649Z,30.93
2019-03-01T11:05:36.899Z,49.97
2019-03-01T11:08:05.772Z,38.80
2019-03-01T11:10:35.907Z,35.40
2019-03-01T11:13:05.296Z,39.63
2019-03-01T11:15:34.525Z,37.10
2019-03-01T11:18:03.398Z,44.03
2019-03-01T11:20:32.276Z,34.50
2019-03-01T11:23:01.328Z,31.33
2019-03-01T11:25:30.176Z,28.90
2019-03-01T11:27:59.078Z,32.03
2019-03-01T11:30:29.255Z,40.77
2019-03-01T11:32:58.145Z,31.57
2019-03-01T11:35:27.548Z,42.10
2019-03-01T11:37:56.421Z,33.27
2019-03-01T11:40:28.062Z,36.73
2019-03-01T11:42:56.836Z,31.93
2019-03-01T11:45:25.757Z,32.20
2019-03-01T11:47:54.599Z,31.37
2019-03-01T11:50:23.615Z,37.83
2019-03-01T11:52:52.417Z,30.37
2019-03-01T11:55:21.529Z,43.87
2019-03-01T11:57:50.511Z,42.47
2019-03-01T12:00:20.727Z,38.60
2019-03-01T12:02:50.657Z,38.47
2019-03-01T12:05:19.681Z,43.47
2019-03-01T12:07:49.120Z,37.90
2019-03-01T12:10:22.321Z,31.33
2019-03-01T12:12:52.296Z,30.80
2019-03-01T12:15:21.528Z,33.77
2019-03-01T12:17:50.690Z,34.73
2019-03-01T12:20:20.847Z,36.87
2019-03-01T12:22:49.946Z,44.60
2019-03-01T12:25:18.836Z,37.83
2019-03-01T12:27:47.615Z,33.50
2019-03-01T12:30:18.307Z,40.13
2019-03-01T12:32:47.627Z,37.63
2019-03-01T12:35:16.797Z,32.57
2019-03-01T12:37:45.858Z,29.80
2019-03-01T12:40:19.880Z,34.10
2019-03-01T12:42:48.757Z,32.73
2019-03-01T12:45:17.688Z,41.80
2019-03-01T12:47:46.633Z,38.53
2019-03-01T12:50:15.903Z,34.90
2019-03-01T12:52:44.818Z,38.90
2019-03-01T12:55:18.128Z,39.30
2019-03-01T12:57:47.282Z,32.67
2019-03-01T13:00:18.884Z,39.70
2019-03-01T13:02:47.654Z,34.93
2019-03-01T13:05:16.514Z,69.93
2019-03-01T13:07:45.408Z,48.00
2019-03-01T13:10:22.915Z,36.20
2019-03-01T13:12:51.923Z,35.57
2019-03-01T13:15:20.811Z,39.10
2019-03-01T13:17:50.006Z,34.43
2019-03-01T13:20:19.151Z,43.33
2019-03-01T13:22:48.041Z,37.90
2019-03-01T13:25:17.607Z,42.70
2019-03-01T13:27:48.828Z,36.57
2019-03-01T13:30:18.853Z,25.90
2019-03-01T13:32:48.168Z,19.03
2019-03-01T13:35:17.867Z,28.23
2019-03-01T13:37:46.755Z,19.27
2019-03-01T13:40:17.171Z,33.60
2019-03-01T13:42:47.254Z,31.43
2019-03-01T13:45:17.520Z,32.40
2019-03-01T13:47:46.507Z,20.60
2019-03-01T13:50:16.175Z,25.90
2019-03-01T13:52:44.942Z,36.10
2019-03-01T13:55:14.895Z,36.90
2019-03-01T13:57:45.984Z,76.97
2019-03-01T14:00:16.787Z,50.40
2019-03-01T14:02:47.081Z,25.10
2019-03-01T14:05:17.396Z,37.53
2019-03-01T14:07:46.460Z,34.70
2019-03-01T14:10:17.935Z,27.13
2019-03-01T14:12:46.837Z,28.97
2019-03-01T14:15:16.617Z,31.17
2019-03-01T14:17:46.312Z,43.83
2019-03-01T14:20:20.428Z,60.03
2019-03-01T14:22:48.928Z,77.47
2019-03-01T14:25:20.259Z,47.97
2019-03-01T14:27:52.864Z,41.97
2019-03-01T14:30:25.073Z,87.97
2019-03-01T14:32:57.050Z,34.33
2019-03-01T14:35:25.976Z,27.33
2019-03-01T14:37:55.239Z,35.13
2019-03-01T14:40:25.896Z,28.47
2019-03-01T14:42:56.724Z,30.57
2019-03-01T14:45:26.118Z,30.70
2019-03-01T14:47:55.452Z,26.57
2019-03-01T14:50:24.688Z,29.67
2019-03-01T14:52:58.523Z,23.40
2019-03-01T14:55:28.310Z,24.73
2019-03-01T14:58:03.689Z,24.23
2019-03-01T15:01:05.793Z,33.07
2019-03-01T15:03:37.539Z,35.30
2019-03-01T15:06:07.994Z,21.30
2019-03-01T15:08:40.474Z,34.03
2019-03-01T15:11:11.598Z,23.53
2019-03-01T15:13:40.886Z,21.83
2019-03-01T15:16:10.427Z,33.67
2019-03-01T15:18:40.315Z,42.63
2019-03-01T15:21:09.860Z,21.87
2019-03-01T15:23:38.891Z,31.63
2019-03-01T15:26:08.084Z,33.07
2019-03-01T15:28:55.690Z,35.77
2019-03-01T15:31:24.698Z,25.77
2019-03-01T15:33:53.945Z,21.97
2019-03-01T15:36:22.755Z,25.70
2019-03-01T15:38:51.688Z,23.60
2019-03-01T15:41:20.501Z,33.67
2019-03-01T15:43:49.417Z,58.47
2019-03-01T15:46:18.247Z,33.97
2019-03-01T15:48:47.190Z,38.70
2019-03-01T15:51:16.027Z,35.40
2019-03-01T15:53:44.965Z,33.73
2019-03-01T15:56:14.202Z,50.23
2019-03-01T15:58:43.120Z,59.70
2019-03-01T16:01:12.249Z,63.03
2019-03-01T16:03:41.888Z,70.13
2019-03-01T16:06:17.507Z,67.73
2019-03-01T16:08:43.839Z,70.33
2019-03-01T16:11:12.625Z,87.40
2019-03-01T16:13:47.995Z,84.57
2019-03-01T16:16:13.586Z,81.03
2019-03-01T16:18:43.697Z,83.07
2019-03-01T16:21:12.731Z,84.10
2019-03-01T16:23:41.933Z,84.07
2019-03-01T16:26:11.086Z,85.53
2019-03-01T16:28:39.968Z,90.80
2019-03-01T16:31:08.858Z,98.70
2019-03-01T16:33:37.744Z,91.87
2019-03-01T16:36:12.955Z,78.90
2019-03-01T16:38:47.668Z,92.40
2019-03-01T16:41:12.581Z,92.87
2019-03-01T16:43:41.521Z,93.40
2019-03-01T16:46:10.572Z,94.43
2019-03-01T16:48:39.496Z,90.17
2019-03-01T16:51:10.131Z,100.37
2019-03-01T16:53:40.525Z,84.20
2019-03-01T16:56:12.220Z,109.10
2019-03-01T16:58:42.724Z,111.17
2019-03-01T17:01:11.742Z,103.93
2019-03-01T17:03:40.811Z,101.77
2019-03-01T17:06:10.507Z,143.50
2019-03-01T17:08:41.556Z,113.70
2019-03-01T17:11:10.453Z,105.67
2019-03-01T17:13:39.274Z,110.43
2019-03-01T17:16:08.362Z,109.37
2019-03-01T17:18:37.966Z,106.43
2019-03-01T17:21:08.652Z,119.70
2019-03-01T17:23:39.225Z,112.13
2019-03-01T17:26:08.096Z,108.77
2019-03-01T17:28:36.933Z,103.97
2019-03-01T17:31:05.807Z,112.67
2019-03-01T17:33:34.766Z,115.17
2019-03-01T17:36:03.735Z,113.83
2019-03-01T17:38:32.523Z,136.20
2019-03-01T17:41:01.338Z,76.30
2019-03-01T17:43:32.745Z,60.87
2019-03-01T17:46:00.888Z,55.73
2019-03-01T17:48:29.861Z,54.70
2019-03-01T17:50:58.675Z,62.13
2019-03-01T17:53:27.669Z,65.13
2019-03-01T17:55:56.672Z,71.93
2019-03-01T17:58:26.178Z,56.03
2019-03-01T18:00:55.119Z,53.57
2019-03-01T18:03:24.403Z,53.93
2019-03-01T18:05:54.868Z,66.50
2019-03-01T18:08:23.796Z,49.97
2019-03-01T18:10:52.628Z,50.83
2019-03-01T18:13:21.435Z,53.60
2019-03-01T18:15:50.410Z,72.53
2019-03-01T18:18:19.572Z,51.27
2019-03-01T18:20:48.871Z,65.17
2019-03-01T18:23:17.735Z,56.87
2019-03-01T18:25:46.690Z,55.87
2019-03-01T18:28:15.463Z,51.97
2019-03-01T18:30:44.381Z,79.63
2019-03-01T18:33:16.873Z,50.10
2019-03-01T18:35:44.876Z,45.77
2019-03-01T18:38:14.084Z,65.00
2019-03-01T18:40:42.867Z,51.27
2019-03-01T18:43:13.096Z,48.30
2019-03-01T18:45:43.190Z,50.17
2019-03-01T18:48:12.292Z,79.30
2019-03-01T18:50:41.299Z,60.20
2019-03-01T18:53:10.257Z,55.43
2019-03-01T18:55:39.115Z,50.33
2019-03-01T18:58:10.474Z,58.97
2019-03-01T19:00:39.183Z,54.20
2019-03-01T19:03:08.214Z,43.30
2019-03-01T19:05:40.291Z,53.83
2019-03-01T19:08:08.404Z,51.57
2019-03-01T19:10:37.329Z,54.97
2019-03-01T19:13:06.257Z,62.40
2019-03-01T19:15:35.649Z,42.60
2019-03-01T19:18:04.723Z,45.87
2019-03-01T19:20:34.052Z,57.33
2019-03-01T19:23:03.476Z,50.57
2019-03-01T19:25:32.340Z,49.27
2019-03-01T19:28:01.706Z,57.87
2019-03-01T19:30:30.600Z,45.70
2019-03-01T19:33:02.270Z,43.07
2019-03-01T19:35:30.491Z,49.83
2019-03-01T19:37:59.484Z,57.03
2019-03-01T19:40:28.291Z,45.20
2019-03-01T19:42:57.709Z,42.23
2019-03-01T19:45:27.127Z,42.43
2019-03-01T19:48:01.275Z,43.57
2019-03-01T19:50:27.011Z,46.80
2019-03-01T19:52:56.073Z,54.23
2019-03-01T19:55:25.137Z,35.87
2019-03-01T19:57:54.098Z,45.77
2019-03-01T20:00:23.611Z,58.40
2019-03-01T20:02:52.432Z,58.27
2019-03-01T20:05:23.116Z,38.47
2019-03-01T20:07:54.659Z,50.67
2019-03-01T20:10:22.754Z,56.93
2019-03-01T20:12:51.697Z,49.40
2019-03-01T20:15:22.087Z,45.20
2019-03-01T20:17:51.218Z,46.10
2019-03-01T20:20:20.832Z,28.63
2019-03-01T20:22:53.613Z,43.50
2019-03-01T20:25:27.716Z,48.17
2019-03-01T20:27:59.341Z,36.97
2019-03-01T20:30:30.120Z,43.70
2019-03-01T20:33:00.334Z,49.43
2019-03-01T20:35:29.391Z,55.83
2019-03-01T20:38:00.086Z,46.73
2019-03-01T20:40:28.924Z,106.80
2019-03-01T20:43:06.295Z,49.27
2019-03-01T20:45:30.116Z,39.30
2019-03-01T20:47:59.551Z,42.17
2019-03-01T20:50:28.416Z,46.80
2019-03-01T20:52:57.394Z,40.00
2019-03-01T20:55:29.247Z,33.53
2019-03-01T20:57:59.743Z,44.63
2019-03-01T21:00:29.963Z,46.93
2019-03-01T21:03:05.408Z,53.40
2019-03-01T21:05:34.339Z,33.38
2019-03-01T21:08:03.304Z,36.23
2019-03-01T21:10:32.199Z,42.77
2019-03-01T21:13:01.105Z,31.20
2019-03-01T21:15:29.954Z,40.70
2019-03-01T21:17:58.882Z,42.73
2019-03-01T21:20:28.015Z,36.20
2019-03-01T21:22:57.182Z,36.97
2019-03-01T21:25:26.207Z,44.70
2019-03-01T21:27:57.604Z,47.83
2019-03-01T21:30:26.927Z,37.30
2019-03-01T21:32:56.421Z,33.77
2019-03-01T21:35:26.562Z,44.43
2019-03-01T21:37:55.862Z,36.83
2019-03-01T21:40:24.694Z,52.97
2019-03-01T21:42:57.356Z,40.83
2019-03-01T21:45:24.077Z,37.77
2019-03-01T21:47:53.097Z,37.97
2019-03-01T21:50:21.970Z,37.67
2019-03-01T21:52:51.241Z,46.23
2019-03-01T21:55:21.068Z,39.10
2019-03-01T21:57:49.925Z,37.80
2019-03-01T22:00:20.993Z,50.27
2019-03-01T22:02:52.786Z,35.60
2019-03-01T22:05:20.404Z,44.80
2019-03-01T22:07:49.472Z,59.67
2019-03-01T22:10:18.473Z,48.23
2019-03-01T22:12:47.732Z,39.53
2019-03-01T22:15:21.557Z,41.33
2019-03-01T22:17:49.594Z,43.60
2019-03-01T22:20:18.542Z,30.70
2019-03-01T22:22:47.372Z,34.87
2019-03-01T22:25:16.196Z,40.17
2019-03-01T22:27:45.427Z,37.20
2019-03-01T22:30:19.599Z,38.57
2019-03-01T22:32:47.573Z,44.73
2019-03-01T22:35:16.351Z,39.60
2019-03-01T22:37:47.026Z,43.43
2019-03-01T22:40:16.110Z,30.87
2019-03-01T22:42:45.667Z,45.03
2019-03-01T22:45:15.805Z,31.40
2019-03-01T22:47:44.619Z,35.40
2019-03-01T22:50:14.698Z,34.20
2019-03-01T22:52:43.603Z,23.43
2019-03-01T22:55:14.139Z,25.72
2019-03-01T22:57:44.943Z,18.25
2019-03-01T23:01:06.494Z,22.80
2019-03-01T23:03:35.908Z,17.97
2019-03-01T23:06:04.953Z,21.27
2019-03-01T23:08:35.462Z,22.03
2019-03-01T23:11:04.607Z,17.62
2019-03-01T23:13:33.485Z,18.73
2019-03-01T23:16:02.454Z,21.80
2019-03-01T23:18:31.268Z,23.80
2019-03-01T23:21:00.992Z,17.80
2019-03-01T23:23:31.186Z,23.10
2019-03-01T23:26:00.129Z,21.50
2019-03-01T23:28:29.135Z,23.07
2019-03-01T23:31:00.493Z,25.85
2019-03-01T23:33:31.668Z,21.02
2019-03-01T23:35:59.618Z,21.77
2019-03-01T23:38:28.726Z,37.05
2019-03-01T23:40:57.995Z,21.87
2019-03-01T23:43:27.590Z,22.00
2019-03-01T23:45:58.173Z,22.48
2019-03-01T23:48:27.174Z,26.00
2019-03-01T23:50:56.284Z,26.02
2019-03-01T23:53:25.118Z,31.97
2019-03-01T23:55:54.654Z,22.82
2019-03-01T23:58:24.710Z,22.77
